Stations météo

Publicité
Hadera Port, Israël (40175): Température de l'air & dewpoint: 30.06.2020 05:00:00 - 06.07.2020 05:00:00 (IDT)Hadera Port, Israël (40175): Vitesse du vent: 30.06.2020 05:00:00 - 06.07.2020 05:00:00 (IDT)Hadera Port, Israël (40175): Direction du vent: 30.06.2020 05:00:00 - 06.07.2020 05:00:00 (IDT)
Date & Time tt [°C] td [°C] ff [km/h] ff [knt] dd
06.07.2020 05:00:00 26,6 23,4 16 8 SW
06.07.2020 04:00:00 26,9 22,5 17 9 SW
06.07.2020 03:00:00 27,0 23,0 15 8 SSW
06.07.2020 02:00:00 27,0 23,2 19 10 SW
06.07.2020 01:00:00 - - - - -
06.07.2020 00:00:00 27,0 23,1 20 11 SW
05.07.2020 23:00:00 26,9 23,2 18 10 SW
05.07.2020 22:00:00 26,7 23,5 18 10 SSW
05.07.2020 21:00:00 26,6 23,3 16 9 SW
05.07.2020 20:00:00 26,8 23,5 14 8 SW
05.07.2020 19:00:00 27,1 23,2 13 7 SW
05.07.2020 18:00:00 27,4 23,0 14 7 SW
05.07.2020 17:00:00 27,4 23,0 13 7 WSW
05.07.2020 16:00:00 27,4 22,7 16 8 W
05.07.2020 15:00:00 27,3 22,5 16 9 WSW
05.07.2020 14:00:00 27,1 22,7 16 9 SW
05.07.2020 13:00:00 26,7 23,1 22 12 SSW
05.07.2020 12:00:00 26,7 23,1 23 12 SSW
05.07.2020 11:00:00 26,6 23,2 22 12 SSW
05.07.2020 10:00:00 26,1 23,3 24 13 S
05.07.2020 09:00:00 25,8 23,3 24 13 S
05.07.2020 08:00:00 25,4 22,6 21 12 S
05.07.2020 07:00:00 24,5 22,0 13 7 SSE
05.07.2020 06:00:00 24,6 22,3 12 6 SSE
05.07.2020 05:00:00 24,9 22,6 10 5 S
05.07.2020 04:00:00 26,0 23,2 13 7 SW
05.07.2020 03:00:00 26,0 23,3 11 6 WSW
05.07.2020 02:00:00 26,0 23,4 12 7 WSW
05.07.2020 01:00:00 26,2 23,5 11 6 SW
05.07.2020 00:00:00 26,2 23,4 10 5 SW
04.07.2020 23:00:00 26,2 23,5 11 6 SW
04.07.2020 22:00:00 26,3 23,5 8 4 SW
04.07.2020 21:00:00 26,3 23,6 6 4 W
04.07.2020 20:00:00 26,5 23,9 11 6 W
04.07.2020 19:00:00 26,9 23,8 11 6 WNW
04.07.2020 18:00:00 27,0 23,9 13 7 WNW
04.07.2020 17:00:00 27,1 23,9 15 8 W
04.07.2020 16:00:00 27,1 23,5 16 9 W
04.07.2020 15:00:00 26,8 23,3 15 8 W
04.07.2020 14:00:00 26,6 23,0 17 9 W
04.07.2020 13:00:00 26,7 23,0 16 8 WSW
04.07.2020 12:00:00 26,6 23,2 16 8 WSW
04.07.2020 11:00:00 26,4 23,6 16 9 SSW
04.07.2020 10:00:00 26,2 23,4 16 9 SSW
04.07.2020 09:00:00 26,0 23,1 14 7 S
04.07.2020 08:00:00 25,1 22,8 9 5 SSE
04.07.2020 07:00:00 24,3 22,4 7 4 SSE
04.07.2020 06:00:00 23,9 22,1 10 6 SSE
04.07.2020 05:00:00 24,3 22,3 4 2 SE
04.07.2020 04:00:00 24,8 22,8 5 3 SSE
04.07.2020 03:00:00 25,5 23,4 6 4 S
04.07.2020 02:00:00 25,7 23,8 8 4 SW
04.07.2020 01:00:00 - - - - -
04.07.2020 00:00:00 26,0 23,4 2 1 WSW
03.07.2020 23:00:00 26,1 23,5 4 2 W
03.07.2020 22:00:00 - - - - -
03.07.2020 21:00:00 26,4 23,7 10 5 NNW
03.07.2020 20:00:00 26,4 23,9 16 9 NNW
03.07.2020 19:00:00 26,7 24,0 21 11 NNW
03.07.2020 18:00:00 26,8 23,8 18 10 NNW
03.07.2020 17:00:00 26,7 23,9 16 9 NW
03.07.2020 16:00:00 26,6 23,6 16 9 NW
03.07.2020 15:00:00 26,4 23,2 15 8 WNW
03.07.2020 14:00:00 26,1 23,0 12 6 WNW
03.07.2020 13:00:00 25,9 22,8 15 8 WNW
03.07.2020 12:00:00 25,8 22,3 15 8 W
03.07.2020 11:00:00 25,7 22,4 11 6 W
03.07.2020 10:00:00 25,7 22,3 9 5 WSW
03.07.2020 09:00:00 25,2 22,3 3 2 SW
03.07.2020 08:00:00 24,0 21,9 2 1 ESE
03.07.2020 07:00:00 22,6 21,5 2 1 ESE
03.07.2020 06:00:00 22,4 21,2 8 4 E
03.07.2020 05:00:00 22,5 21,0 11 6 ESE
03.07.2020 04:00:00 22,8 21,3 11 6 ESE
03.07.2020 03:00:00 23,4 21,8 5 3 ESE
03.07.2020 02:00:00 23,5 21,7 8 5 ESE
03.07.2020 01:00:00 24,6 22,2 5 3 E
03.07.2020 00:00:00 25,2 22,7 5 3 SSE
02.07.2020 23:00:00 25,5 22,9 4 2 SSE
02.07.2020 22:00:00 25,6 22,8 0 0 NW
02.07.2020 21:00:00 25,7 22,9 5 3 NNW
02.07.2020 20:00:00 25,9 23,1 10 6 NNW
02.07.2020 19:00:00 26,3 23,0 13 7 N
02.07.2020 18:00:00 26,4 23,1 17 9 NNW
02.07.2020 17:00:00 26,3 23,1 20 11 NW
02.07.2020 16:00:00 26,2 23,1 18 10 NW
02.07.2020 15:00:00 25,9 22,8 18 10 WNW
02.07.2020 14:00:00 25,8 22,5 16 9 W
02.07.2020 13:00:00 25,6 22,1 16 9 W
02.07.2020 12:00:00 25,6 22,0 13 7 W
02.07.2020 11:00:00 25,6 22,2 14 7 WSW
02.07.2020 10:00:00 25,4 22,0 11 6 SW
02.07.2020 09:00:00 24,9 21,8 11 6 SSW
02.07.2020 08:00:00 24,4 21,4 7 4 S
02.07.2020 07:00:00 23,5 21,0 11 6 SSE
02.07.2020 06:00:00 23,3 21,0 9 5 SSE
02.07.2020 05:00:00 23,2 20,9 10 5 SSE
02.07.2020 04:00:00 23,6 21,1 10 5 SSE
02.07.2020 03:00:00 24,4 21,4 4 2 SE
02.07.2020 02:00:00 24,7 21,5 3 2 N
02.07.2020 01:00:00 24,9 21,5 5 3 NNW
02.07.2020 00:00:00 25,0 21,4 5 3 NW
01.07.2020 23:00:00 25,2 21,4 11 6 NW
01.07.2020 22:00:00 25,3 21,4 11 6 NNW
01.07.2020 21:00:00 25,2 21,6 11 6 NNW
01.07.2020 20:00:00 25,3 21,7 10 5 WNW
01.07.2020 19:00:00 25,8 21,6 10 6 WNW
01.07.2020 18:00:00 25,9 21,5 14 8 NW
01.07.2020 17:00:00 25,9 21,3 16 9 WNW
01.07.2020 16:00:00 25,9 21,4 16 9 WNW
01.07.2020 15:00:00 26,1 21,5 15 8 W
01.07.2020 14:00:00 26,0 21,6 15 8 W
01.07.2020 13:00:00 25,9 21,3 16 9 WSW
01.07.2020 12:00:00 25,9 21,2 17 9 WSW
01.07.2020 11:00:00 25,5 21,5 18 10 SSW
01.07.2020 10:00:00 25,4 21,1 17 9 SSW
01.07.2020 09:00:00 25,1 21,6 20 11 S
01.07.2020 08:00:00 24,6 21,1 16 8 S
01.07.2020 07:00:00 23,5 20,7 15 8 SSE
01.07.2020 06:00:00 23,0 20,8 13 7 SSE
01.07.2020 05:00:00 23,1 20,6 13 7 SSE
01.07.2020 04:00:00 24,1 20,6 10 5 SSE
01.07.2020 03:00:00 25,0 21,3 15 8 SSW
01.07.2020 02:00:00 25,0 21,2 13 7 SSW
01.07.2020 01:00:00 25,0 21,0 13 7 SW
01.07.2020 00:00:00 25,1 21,3 15 8 SW
30.06.2020 23:00:00 25,1 21,2 12 7 SW
30.06.2020 22:00:00 25,2 21,4 13 7 SW
30.06.2020 21:00:00 25,4 21,3 13 7 WSW
30.06.2020 20:00:00 25,5 21,3 13 7 WSW
30.06.2020 19:00:00 26,1 21,6 12 6 WSW
30.06.2020 18:00:00 26,2 21,7 16 8 WSW
30.06.2020 17:00:00 26,5 21,8 15 8 WSW
30.06.2020 16:00:00 26,4 21,7 17 9 WSW
30.06.2020 15:00:00 26,3 21,7 18 10 SW
30.06.2020 14:00:00 26,2 21,9 18 10 SW
30.06.2020 13:00:00 26,1 21,6 19 10 SW
30.06.2020 12:00:00 25,8 21,8 21 11 SW
30.06.2020 11:00:00 25,6 21,8 24 13 SSW
30.06.2020 10:00:00 25,4 21,4 23 12 SSW
30.06.2020 09:00:00 25,4 21,4 22 12 SSW
30.06.2020 08:00:00 25,5 20,7 20 11 SSW
30.06.2020 07:00:00 25,3 20,9 21 12 SSW
30.06.2020 06:00:00 25,2 21,4 20 11 SSW
30.06.2020 05:00:00 25,4 21,1 19 10 SSW

tt = Température de l'air
td = dewpoint
ff = Vitesse du vent
dd = Direction du vent

stations d'obs. à proximité